createdAt,value
2023-05-14T00:00:02.319Z,1015.178
2023-05-14T00:07:02.301Z,1015.178
2023-05-14T00:14:02.224Z,1015.104
2023-05-14T00:21:01.843Z,1015.104
2023-05-14T00:28:01.584Z,1015.198
2023-05-14T00:35:02.249Z,1015.198
2023-05-14T00:42:02.058Z,1015.029
2023-05-14T00:49:01.923Z,1014.916
2023-05-14T00:56:01.617Z,1014.916
2023-05-14T01:00:02.210Z,1014.916
2023-05-14T01:07:01.367Z,1014.883
2023-05-14T01:14:01.810Z,1014.836
2023-05-14T01:21:01.865Z,1014.836
2023-05-14T01:28:02.164Z,1014.652
2023-05-14T01:35:02.453Z,1014.652
2023-05-14T01:42:01.467Z,1014.599
2023-05-14T01:49:01.695Z,1014.599
2023-05-14T01:56:01.369Z,1014.537
2023-05-14T02:00:01.938Z,1014.537
2023-05-14T02:07:01.900Z,1014.622
2023-05-14T02:14:01.632Z,1014.622
2023-05-14T02:21:02.095Z,1014.536
2023-05-14T02:28:01.868Z,1014.536
2023-05-14T02:35:02.213Z,1014.451
2023-05-14T02:42:02.147Z,1014.451
2023-05-14T02:49:01.805Z,1014.384
2023-05-14T02:56:01.981Z,1014.384
2023-05-14T03:00:01.560Z,1014.565
2023-05-14T03:07:02.075Z,1014.565
2023-05-14T03:14:01.474Z,1014.292
2023-05-14T03:21:01.405Z,1014.292
2023-05-14T03:28:01.879Z,1014.427
2023-05-14T03:35:02.264Z,1014.427
2023-05-14T03:42:01.454Z,1014.471
2023-05-14T03:49:01.576Z,1014.47
2023-05-14T03:56:02.203Z,1014.47
2023-05-14T04:00:01.749Z,1014.47
2023-05-14T04:07:02.246Z,1014.537
2023-05-14T04:14:01.952Z,1014.347
2023-05-14T04:21:01.851Z,1014.347
2023-05-14T04:28:02.122Z,1014.414
2023-05-14T04:35:02.257Z,1014.414
2023-05-14T04:42:01.382Z,1014.338
2023-05-14T04:49:01.997Z,1014.338
2023-05-14T04:56:01.664Z,1014.397
2023-05-14T05:00:02.404Z,1014.397
2023-05-14T05:07:01.833Z,1014.266
2023-05-14T05:14:01.478Z,1014.266
2023-05-14T05:21:02.213Z,1014.435
2023-05-14T05:28:02.280Z,1014.435
2023-05-14T05:35:02.171Z,1014.378
2023-05-14T05:42:02.010Z,1014.378
2023-05-14T05:49:02.069Z,1014.417
2023-05-14T05:56:01.946Z,1014.417
2023-05-14T06:00:02.621Z,1014.46
2023-05-14T06:07:02.218Z,1014.46
2023-05-14T06:14:01.368Z,1014.433
2023-05-14T06:21:01.624Z,1014.433
2023-05-14T06:28:01.346Z,1014.453
2023-05-14T06:35:02.468Z,1014.453
2023-05-14T06:42:01.926Z,1014.436
2023-05-14T06:49:01.873Z,1014.58
2023-05-14T06:56:01.809Z,1014.58
2023-05-14T07:00:03.664Z,1014.58
2023-05-14T07:07:01.726Z,1014.528
2023-05-14T07:14:02.021Z,1014.277
2023-05-14T07:21:01.834Z,1014.277
2023-05-14T07:28:01.414Z,1014.316
2023-05-14T07:35:02.000Z,1014.316
2023-05-14T07:42:01.559Z,1014.378
2023-05-14T07:49:02.011Z,1014.378
2023-05-14T07:56:02.021Z,1014.473
2023-05-14T08:00:01.570Z,1014.473
2023-05-14T08:07:02.129Z,1014.399
2023-05-14T08:14:01.971Z,1014.399
2023-05-14T08:21:03.375Z,1014.48
2023-05-14T08:28:02.245Z,1014.48
2023-05-14T08:35:01.540Z,1014.414
2023-05-14T08:42:02.197Z,1014.414
2023-05-14T08:49:01.445Z,1014.235
2023-05-14T08:56:02.068Z,1014.235
2023-05-14T09:00:01.696Z,1014.031
2023-05-14T09:07:01.877Z,1014.031
2023-05-14T09:14:02.020Z,1013.956
2023-05-14T09:21:01.420Z,1013.956
2023-05-14T09:28:01.417Z,1013.787
2023-05-14T09:35:01.546Z,1013.787
2023-05-14T09:42:02.099Z,1013.672
2023-05-14T09:49:01.487Z,1013.462
2023-05-14T09:56:01.622Z,1013.462
2023-05-14T10:00:02.269Z,1013.462
2023-05-14T10:07:01.410Z,1013.488
2023-05-14T10:14:01.701Z,1013.488
2023-05-14T10:21:01.978Z,1013.328
2023-05-14T10:28:01.474Z,1013.233
2023-05-14T10:35:01.918Z,1013.233
2023-05-14T10:42:01.684Z,1013.203
2023-05-14T10:49:01.531Z,1013.203
2023-05-14T10:56:01.883Z,1012.854
2023-05-14T11:00:02.618Z,1012.854
2023-05-14T11:07:02.332Z,1012.976
2023-05-14T11:14:02.308Z,1012.976
2023-05-14T11:21:02.091Z,1012.739
2023-05-14T11:28:02.050Z,1012.739
2023-05-14T11:35:01.497Z,1012.555
2023-05-14T11:42:02.178Z,1012.555
2023-05-14T11:49:02.166Z,1012.532
2023-05-14T11:56:01.596Z,1012.532
2023-05-14T12:00:02.162Z,1012.495
2023-05-14T12:07:02.128Z,1012.495
2023-05-14T12:14:01.709Z,1012.235
2023-05-14T12:21:01.764Z,1012.235
2023-05-14T12:28:02.020Z,1012.153
2023-05-14T12:35:02.501Z,1012.153
2023-05-14T12:42:02.127Z,1012.005
2023-05-14T12:49:01.952Z,1012.005
2023-05-14T12:56:01.519Z,1011.908
2023-05-14T13:00:02.097Z,1011.908
2023-05-14T13:07:01.535Z,1011.55
2023-05-14T13:14:02.066Z,1011.55
2023-05-14T13:21:01.812Z,1011.476
2023-05-14T13:28:02.051Z,1011.559
2023-05-14T13:35:01.760Z,1011.559
2023-05-14T13:42:02.043Z,1011.428
2023-05-14T13:49:01.702Z,1011.428
2023-05-14T13:56:01.509Z,1011.454
2023-05-14T14:00:02.217Z,1011.454
2023-05-14T14:07:02.180Z,1011.21
2023-05-14T14:14:01.772Z,1011.21
2023-05-14T14:21:01.846Z,1010.98
2023-05-14T14:28:01.356Z,1010.98
2023-05-14T14:35:02.497Z,1011.056
2023-05-14T14:42:01.408Z,1011.056
2023-05-14T14:49:01.379Z,1010.981
2023-05-14T14:56:02.291Z,1010.981
2023-05-14T15:00:02.650Z,1010.854
2023-05-14T15:07:02.105Z,1010.854
2023-05-14T15:14:01.610Z,1010.854
2023-05-14T15:21:01.600Z,1010.854
2023-05-14T15:42:01.828Z,1010.836
2023-05-14T15:49:01.529Z,1010.836
2023-05-14T15:56:02.190Z,1010.531
2023-05-14T16:00:01.721Z,1010.531
2023-05-14T16:07:01.326Z,1010.696
2023-05-14T16:14:01.698Z,1010.696
2023-05-14T16:21:01.412Z,1010.627
2023-05-14T16:28:02.119Z,1010.627
2023-05-14T16:35:02.655Z,1010.591
2023-05-14T16:42:01.634Z,1010.519
2023-05-14T16:49:01.579Z,1010.519
2023-05-14T16:56:01.428Z,1010.664
2023-05-14T17:00:02.048Z,1010.664
2023-05-14T17:07:02.085Z,1010.664
2023-05-14T17:14:01.553Z,1010.532
2023-05-14T17:21:01.805Z,1010.719
2023-05-14T17:28:01.794Z,1010.719
2023-05-14T17:35:01.779Z,1010.757
2023-05-14T17:42:02.226Z,1010.757
2023-05-14T17:49:01.674Z,1010.728
2023-05-14T17:56:01.631Z,1010.728
2023-05-14T18:00:02.361Z,1010.869
2023-05-14T18:07:01.850Z,1010.869
2023-05-14T18:14:01.657Z,1010.742
2023-05-14T18:21:01.875Z,1010.742
2023-05-14T18:28:02.037Z,1010.977
2023-05-14T18:35:01.675Z,1010.977
2023-05-14T18:42:01.466Z,1010.985
2023-05-14T18:49:02.136Z,1010.985
2023-05-14T18:56:01.808Z,1010.738
2023-05-14T19:00:02.586Z,1010.738
2023-05-14T19:07:01.737Z,1010.913
2023-05-14T19:14:01.948Z,1010.913
2023-05-14T19:21:01.625Z,1009.593
2023-05-14T19:28:01.637Z,1009.593
2023-05-14T19:35:02.669Z,1011.099
2023-05-14T19:42:01.607Z,1010.687
2023-05-14T19:49:02.287Z,1010.687
2023-05-14T19:56:01.694Z,1011.153
2023-05-14T20:00:02.342Z,1011.153
2023-05-14T20:07:01.975Z,1011.153
2023-05-14T20:14:01.553Z,1011.353
2023-05-14T20:21:01.531Z,1010.983
2023-05-14T20:28:02.261Z,1010.983
2023-05-14T20:35:01.713Z,1011.091
2023-05-14T20:42:01.745Z,1011.091
2023-05-14T20:49:01.414Z,1011.098
2023-05-14T20:56:02.219Z,1011.098
2023-05-14T21:00:01.853Z,1010.839
2023-05-14T21:07:02.121Z,1010.839
2023-05-14T21:14:01.534Z,1010.959
2023-05-14T21:21:02.305Z,1010.959
2023-05-14T21:28:01.809Z,1011.097
2023-05-14T21:35:02.370Z,1011.097
2023-05-14T21:42:01.714Z,1011.086
2023-05-14T21:49:01.404Z,1011.086
2023-05-14T21:56:01.588Z,1010.96
2023-05-14T22:00:02.378Z,1010.96
2023-05-14T22:07:01.401Z,1011.067
2023-05-14T22:14:01.339Z,1011.067
2023-05-14T22:21:01.572Z,1010.788
2023-05-14T22:28:02.253Z,1010.788
2023-05-14T22:35:02.271Z,1010.957
2023-05-14T22:42:01.844Z,1010.828
2023-05-14T22:49:01.543Z,1010.828
2023-05-14T22:56:02.028Z,1010.759
2023-05-14T23:00:01.611Z,1010.759
2023-05-14T23:07:02.185Z,1010.759
2023-05-14T23:14:02.194Z,1010.715
2023-05-14T23:21:01.990Z,1010.516
2023-05-14T23:28:01.495Z,1010.516
2023-05-14T23:35:01.520Z,1010.221
2023-05-14T23:42:01.700Z,1010.221
2023-05-14T23:49:02.061Z,1010.482
2023-05-14T23:56:01.374Z,1010.482
